sensor_id;sensor_type;location;lat;lon;timestamp;temperature;humidity
17452;DHT22;8843;48.838;9.324;2022-12-07T00:00:53;7.20;89.30
17452;DHT22;8843;48.838;9.324;2022-12-07T00:03:20;7.10;89.10
17452;DHT22;8843;48.838;9.324;2022-12-07T00:05:47;7.20;89.20
17452;DHT22;8843;48.838;9.324;2022-12-07T00:08:14;7.10;89.90
17452;DHT22;8843;48.838;9.324;2022-12-07T00:10:40;7.20;89.20
17452;DHT22;8843;48.838;9.324;2022-12-07T00:13:07;7.20;89.20
17452;DHT22;8843;48.838;9.324;2022-12-07T00:15:36;7.20;89.20
17452;DHT22;8843;48.838;9.324;2022-12-07T00:18:02;7.20;89.20
17452;DHT22;8843;48.838;9.324;2022-12-07T00:20:29;7.20;89.20
17452;DHT22;8843;48.838;9.324;2022-12-07T00:22:57;7.20;89.90
17452;DHT22;8843;48.838;9.324;2022-12-07T00:25:23;7.10;89.10
17452;DHT22;8843;48.838;9.324;2022-12-07T00:27:52;7.10;89.20
17452;DHT22;8843;48.838;9.324;2022-12-07T00:30:21;7.20;89.30
17452;DHT22;8843;48.838;9.324;2022-12-07T00:32:49;7.20;89.20
17452;DHT22;8843;48.838;9.324;2022-12-07T00:35:16;7.10;89.10
17452;DHT22;8843;48.838;9.324;2022-12-07T00:37:43;7.20;89.20
17452;DHT22;8843;48.838;9.324;2022-12-07T00:40:11;7.20;89.20
17452;DHT22;8843;48.838;9.324;2022-12-07T00:42:38;7.20;89.20
17452;DHT22;8843;48.838;9.324;2022-12-07T00:45:05;7.20;89.10
17452;DHT22;8843;48.838;9.324;2022-12-07T00:47:33;7.20;89.20
17452;DHT22;8843;48.838;9.324;2022-12-07T00:50:01;7.20;89.20
17452;DHT22;8843;48.838;9.324;2022-12-07T00:52:28;7.10;89.10
17452;DHT22;8843;48.838;9.324;2022-12-07T00:54:55;7.10;89.20
17452;DHT22;8843;48.838;9.324;2022-12-07T00:57:21;7.10;89.20
17452;DHT22;8843;48.838;9.324;2022-12-07T00:59:48;7.10;89.10
17452;DHT22;8843;48.838;9.324;2022-12-07T01:02:15;7.10;89.10
17452;DHT22;8843;48.838;9.324;2022-12-07T01:04:42;7.10;89.10
17452;DHT22;8843;48.838;9.324;2022-12-07T01:07:10;7.10;89.10
17452;DHT22;8843;48.838;9.324;2022-12-07T01:09:37;7.10;89.10
17452;DHT22;8843;48.838;9.324;2022-12-07T01:12:05;7.10;89.20
17452;DHT22;8843;48.838;9.324;2022-12-07T01:14:31;7.10;89.20
17452;DHT22;8843;48.838;9.324;2022-12-07T01:16:58;7.10;89.10
17452;DHT22;8843;48.838;9.324;2022-12-07T01:19:25;7.10;89.90
17452;DHT22;8843;48.838;9.324;2022-12-07T01:21:52;7.10;89.10
17452;DHT22;8843;48.838;9.324;2022-12-07T01:24:20;7.10;89.80
17452;DHT22;8843;48.838;9.324;2022-12-07T01:26:49;7.10;89.10
17452;DHT22;8843;48.838;9.324;2022-12-07T01:29:15;7.10;89.10
17452;DHT22;8843;48.838;9.324;2022-12-07T01:31:42;7.10;89.10
17452;DHT22;8843;48.838;9.324;2022-12-07T01:34:09;7.10;89.10
17452;DHT22;8843;48.838;9.324;2022-12-07T01:36:36;7.10;89.10
17452;DHT22;8843;48.838;9.324;2022-12-07T01:39:05;7.10;89.00
17452;DHT22;8843;48.838;9.324;2022-12-07T01:41:35;7.10;89.00
17452;DHT22;8843;48.838;9.324;2022-12-07T01:44:11;7.10;89.00
17452;DHT22;8843;48.838;9.324;2022-12-07T01:46:40;7.10;89.00
17452;DHT22;8843;48.838;9.324;2022-12-07T01:49:10;7.10;89.70
17452;DHT22;8843;48.838;9.324;2022-12-07T01:51:40;7.10;89.00
17452;DHT22;8843;48.838;9.324;2022-12-07T01:54:10;7.10;89.10
17452;DHT22;8843;48.838;9.324;2022-12-07T01:56:40;7.10;89.10
17452;DHT22;8843;48.838;9.324;2022-12-07T01:59:08;7.10;89.10
17452;DHT22;8843;48.838;9.324;2022-12-07T02:01:35;7.10;89.00
17452;DHT22;8843;48.838;9.324;2022-12-07T02:04:02;7.10;89.10
17452;DHT22;8843;48.838;9.324;2022-12-07T02:06:30;7.10;89.00
17452;DHT22;8843;48.838;9.324;2022-12-07T02:08:57;7.10;89.00
17452;DHT22;8843;48.838;9.324;2022-12-07T02:11:24;7.10;89.00
17452;DHT22;8843;48.838;9.324;2022-12-07T02:13:53;7.10;89.10
17452;DHT22;8843;48.838;9.324;2022-12-07T02:16:27;7.10;89.00
17452;DHT22;8843;48.838;9.324;2022-12-07T02:19:07;7.10;89.00
17452;DHT22;8843;48.838;9.324;2022-12-07T02:21:48;7.10;89.00
17452;DHT22;8843;48.838;9.324;2022-12-07T02:24:31;7.10;89.00
17452;DHT22;8843;48.838;9.324;2022-12-07T02:27:34;7.10;88.90
17452;DHT22;8843;48.838;9.324;2022-12-07T02:30:06;7.10;88.90
17452;DHT22;8843;48.838;9.324;2022-12-07T02:32:42;7.10;88.90
17452;DHT22;8843;48.838;9.324;2022-12-07T02:35:12;7.10;88.90
17452;DHT22;8843;48.838;9.324;2022-12-07T02:37:48;7.10;88.80
17452;DHT22;8843;48.838;9.324;2022-12-07T02:40:19;7.10;88.90
17452;DHT22;8843;48.838;9.324;2022-12-07T02:42:49;7.10;88.90
17452;DHT22;8843;48.838;9.324;2022-12-07T02:45:22;7.10;88.80
17452;DHT22;8843;48.838;9.324;2022-12-07T02:47:51;7.10;88.90
17452;DHT22;8843;48.838;9.324;2022-12-07T02:50:20;7.10;88.90
17452;DHT22;8843;48.838;9.324;2022-12-07T02:52:47;7.10;88.80
17452;DHT22;8843;48.838;9.324;2022-12-07T02:55:16;7.10;88.80
17452;DHT22;8843;48.838;9.324;2022-12-07T02:57:54;7.10;88.80
17452;DHT22;8843;48.838;9.324;2022-12-07T03:00:25;7.10;88.90
17452;DHT22;8843;48.838;9.324;2022-12-07T03:02:55;7.10;88.80
17452;DHT22;8843;48.838;9.324;2022-12-07T03:05:40;7.10;89.50
17452;DHT22;8843;48.838;9.324;2022-12-07T03:08:13;7.10;88.70
17452;DHT22;8843;48.838;9.324;2022-12-07T03:10:50;7.10;88.80
17452;DHT22;8843;48.838;9.324;2022-12-07T03:13:23;7.10;88.70
17452;DHT22;8843;48.838;9.324;2022-12-07T03:15:57;7.10;88.70
17452;DHT22;8843;48.838;9.324;2022-12-07T03:18:30;7.10;88.70
17452;DHT22;8843;48.838;9.324;2022-12-07T03:21:00;7.10;89.50
17452;DHT22;8843;48.838;9.324;2022-12-07T03:23:29;7.10;88.70
17452;DHT22;8843;48.838;9.324;2022-12-07T03:26:00;7.10;88.80
17452;DHT22;8843;48.838;9.324;2022-12-07T03:28:31;7.10;88.90
17452;DHT22;8843;48.838;9.324;2022-12-07T03:31:02;7.10;88.70
17452;DHT22;8843;48.838;9.324;2022-12-07T03:33:34;7.10;88.70
17452;DHT22;8843;48.838;9.324;2022-12-07T03:36:07;7.10;88.70
17452;DHT22;8843;48.838;9.324;2022-12-07T03:38:38;7.10;88.70
17452;DHT22;8843;48.838;9.324;2022-12-07T03:41:09;7.10;88.70
17452;DHT22;8843;48.838;9.324;2022-12-07T03:43:39;7.10;88.70
17452;DHT22;8843;48.838;9.324;2022-12-07T03:46:14;7.10;88.70
17452;DHT22;8843;48.838;9.324;2022-12-07T03:48:52;7.10;88.70
17452;DHT22;8843;48.838;9.324;2022-12-07T03:51:24;7.10;88.70
17452;DHT22;8843;48.838;9.324;2022-12-07T03:53:57;7.10;88.70
17452;DHT22;8843;48.838;9.324;2022-12-07T03:56:26;7.10;88.70
17452;DHT22;8843;48.838;9.324;2022-12-07T03:58:54;7.10;88.70
17452;DHT22;8843;48.838;9.324;2022-12-07T04:01:24;7.10;88.70
17452;DHT22;8843;48.838;9.324;2022-12-07T04:03:51;7.10;89.40
17452;DHT22;8843;48.838;9.324;2022-12-07T04:06:17;7.10;88.60
17452;DHT22;8843;48.838;9.324;2022-12-07T04:08:44;7.10;88.60
17452;DHT22;8843;48.838;9.324;2022-12-07T04:11:11;7.10;88.90
17452;DHT22;8843;48.838;9.324;2022-12-07T04:13:38;7.00;88.50
17452;DHT22;8843;48.838;9.324;2022-12-07T04:16:19;7.00;88.60
17452;DHT22;8843;48.838;9.324;2022-12-07T04:18:47;7.10;89.20
17452;DHT22;8843;48.838;9.324;2022-12-07T04:21:14;7.10;88.50
17452;DHT22;8843;48.838;9.324;2022-12-07T04:23:41;7.10;88.40
17452;DHT22;8843;48.838;9.324;2022-12-07T04:26:07;7.10;88.50
17452;DHT22;8843;48.838;9.324;2022-12-07T04:28:34;7.10;88.50
17452;DHT22;8843;48.838;9.324;2022-12-07T04:31:01;7.00;88.30
17452;DHT22;8843;48.838;9.324;2022-12-07T04:33:28;7.10;89.10
17452;DHT22;8843;48.838;9.324;2022-12-07T04:35:56;7.00;88.30
17452;DHT22;8843;48.838;9.324;2022-12-07T04:38:23;7.10;88.40
17452;DHT22;8843;48.838;9.324;2022-12-07T04:40:50;7.10;88.30
17452;DHT22;8843;48.838;9.324;2022-12-07T04:43:17;7.10;88.30
17452;DHT22;8843;48.838;9.324;2022-12-07T04:45:46;7.10;88.20
17452;DHT22;8843;48.838;9.324;2022-12-07T04:48:13;7.10;88.30
17452;DHT22;8843;48.838;9.324;2022-12-07T04:50:40;7.10;88.30
17452;DHT22;8843;48.838;9.324;2022-12-07T04:53:08;7.00;88.20
17452;DHT22;8843;48.838;9.324;2022-12-07T04:55:36;7.10;88.30
17452;DHT22;8843;48.838;9.324;2022-12-07T04:58:03;7.10;89.00
17452;DHT22;8843;48.838;9.324;2022-12-07T05:00:29;7.10;88.20
17452;DHT22;8843;48.838;9.324;2022-12-07T05:02:56;7.10;88.90
17452;DHT22;8843;48.838;9.324;2022-12-07T05:05:23;7.10;88.20
17452;DHT22;8843;48.838;9.324;2022-12-07T05:07:50;7.10;88.20
17452;DHT22;8843;48.838;9.324;2022-12-07T05:10:19;7.00;88.20
17452;DHT22;8843;48.838;9.324;2022-12-07T05:12:46;7.10;88.20
17452;DHT22;8843;48.838;9.324;2022-12-07T05:15:13;7.10;88.20
17452;DHT22;8843;48.838;9.324;2022-12-07T05:17:40;7.10;88.20
17452;DHT22;8843;48.838;9.324;2022-12-07T05:20:08;7.10;88.20
17452;DHT22;8843;48.838;9.324;2022-12-07T05:22:35;7.00;88.10
17452;DHT22;8843;48.838;9.324;2022-12-07T05:25:02;7.10;88.20
17452;DHT22;8843;48.838;9.324;2022-12-07T05:27:30;7.10;88.20
17452;DHT22;8843;48.838;9.324;2022-12-07T05:29:57;7.00;88.10
17452;DHT22;8843;48.838;9.324;2022-12-07T05:32:24;7.00;88.10
17452;DHT22;8843;48.838;9.324;2022-12-07T05:34:51;7.10;88.10
17452;DHT22;8843;48.838;9.324;2022-12-07T05:37:20;7.10;88.10
17452;DHT22;8843;48.838;9.324;2022-12-07T05:39:47;7.10;88.00
17452;DHT22;8843;48.838;9.324;2022-12-07T05:42:13;7.00;88.00
17452;DHT22;8843;48.838;9.324;2022-12-07T05:44:42;7.10;88.10
17452;DHT22;8843;48.838;9.324;2022-12-07T05:47:10;7.10;88.10
17452;DHT22;8843;48.838;9.324;2022-12-07T05:49:36;7.10;88.70
17452;DHT22;8843;48.838;9.324;2022-12-07T05:52:04;7.00;88.80
17452;DHT22;8843;48.838;9.324;2022-12-07T05:54:31;7.40;92.90
17452;DHT22;8843;48.838;9.324;2022-12-07T05:56:58;7.50;89.70
17452;DHT22;8843;48.838;9.324;2022-12-07T05:59:25;7.40;88.00
17452;DHT22;8843;48.838;9.324;2022-12-07T06:01:56;7.20;88.60
17452;DHT22;8843;48.838;9.324;2022-12-07T06:04:24;7.20;88.50
17452;DHT22;8843;48.838;9.324;2022-12-07T06:06:51;7.10;88.50
17452;DHT22;8843;48.838;9.324;2022-12-07T06:09:20;7.10;88.60
17452;DHT22;8843;48.838;9.324;2022-12-07T06:11:47;7.10;88.60
17452;DHT22;8843;48.838;9.324;2022-12-07T06:14:32;7.10;88.60
17452;DHT22;8843;48.838;9.324;2022-12-07T06:17:00;7.10;88.50
17452;DHT22;8843;48.838;9.324;2022-12-07T06:19:27;7.10;88.50
17452;DHT22;8843;48.838;9.324;2022-12-07T06:21:54;7.10;88.50
17452;DHT22;8843;48.838;9.324;2022-12-07T06:24:21;7.10;88.50
17452;DHT22;8843;48.838;9.324;2022-12-07T06:26:49;7.10;88.40
17452;DHT22;8843;48.838;9.324;2022-12-07T06:29:16;7.00;88.30
17452;DHT22;8843;48.838;9.324;2022-12-07T06:31:44;7.10;88.40
17452;DHT22;8843;48.838;9.324;2022-12-07T06:34:14;7.00;88.30
17452;DHT22;8843;48.838;9.324;2022-12-07T06:36:41;7.00;88.30
17452;DHT22;8843;48.838;9.324;2022-12-07T06:39:09;7.00;88.20
17452;DHT22;8843;48.838;9.324;2022-12-07T06:41:36;7.00;89.00
17452;DHT22;8843;48.838;9.324;2022-12-07T06:44:04;7.00;88.20
17452;DHT22;8843;48.838;9.324;2022-12-07T06:46:31;7.00;88.30
17452;DHT22;8843;48.838;9.324;2022-12-07T06:48:58;7.00;88.10
17452;DHT22;8843;48.838;9.324;2022-12-07T06:51:27;7.00;88.10
17452;DHT22;8843;48.838;9.324;2022-12-07T06:53:53;7.00;88.20
17452;DHT22;8843;48.838;9.324;2022-12-07T06:56:20;7.00;87.20
17452;DHT22;8843;48.838;9.324;2022-12-07T06:58:48;6.60;88.50
17452;DHT22;8843;48.838;9.324;2022-12-07T07:01:17;6.60;88.00
17452;DHT22;8843;48.838;9.324;2022-12-07T07:03:45;6.70;86.40
17452;DHT22;8843;48.838;9.324;2022-12-07T07:06:13;6.70;87.20
17452;DHT22;8843;48.838;9.324;2022-12-07T07:08:41;6.80;86.50
17452;DHT22;8843;48.838;9.324;2022-12-07T07:11:09;6.80;86.60
17452;DHT22;8843;48.838;9.324;2022-12-07T07:13:36;6.80;86.70
17452;DHT22;8843;48.838;9.324;2022-12-07T07:16:04;6.90;86.80
17452;DHT22;8843;48.838;9.324;2022-12-07T07:18:31;6.80;86.50
17452;DHT22;8843;48.838;9.324;2022-12-07T07:20:58;7.00;88.30
17452;DHT22;8843;48.838;9.324;2022-12-07T07:23:26;6.90;86.70
17452;DHT22;8843;48.838;9.324;2022-12-07T07:25:55;6.90;86.90
17452;DHT22;8843;48.838;9.324;2022-12-07T07:28:22;6.90;87.10
17452;DHT22;8843;48.838;9.324;2022-12-07T07:30:49;6.90;87.10
17452;DHT22;8843;48.838;9.324;2022-12-07T07:33:15;6.90;87.20
17452;DHT22;8843;48.838;9.324;2022-12-07T07:35:42;6.90;87.30
17452;DHT22;8843;48.838;9.324;2022-12-07T07:38:09;6.90;87.30
17452;DHT22;8843;48.838;9.324;2022-12-07T07:40:36;6.90;87.30
17452;DHT22;8843;48.838;9.324;2022-12-07T07:43:04;6.90;87.40
17452;DHT22;8843;48.838;9.324;2022-12-07T07:45:32;6.90;87.30
17452;DHT22;8843;48.838;9.324;2022-12-07T07:47:58;6.90;87.40
17452;DHT22;8843;48.838;9.324;2022-12-07T07:50:25;6.90;87.40
17452;DHT22;8843;48.838;9.324;2022-12-07T07:52:52;6.90;87.40
17452;DHT22;8843;48.838;9.324;2022-12-07T07:55:19;6.90;87.40
17452;DHT22;8843;48.838;9.324;2022-12-07T07:57:46;6.90;87.70
17452;DHT22;8843;48.838;9.324;2022-12-07T08:00:15;6.90;87.40
17452;DHT22;8843;48.838;9.324;2022-12-07T08:02:43;6.90;87.40
17452;DHT22;8843;48.838;9.324;2022-12-07T08:05:10;6.90;87.40
17452;DHT22;8843;48.838;9.324;2022-12-07T08:07:38;6.90;87.40
17452;DHT22;8843;48.838;9.324;2022-12-07T08:10:06;6.90;87.40
17452;DHT22;8843;48.838;9.324;2022-12-07T08:12:36;6.90;87.40
17452;DHT22;8843;48.838;9.324;2022-12-07T08:15:25;7.00;87.50
17452;DHT22;8843;48.838;9.324;2022-12-07T08:17:53;7.00;87.50
17452;DHT22;8843;48.838;9.324;2022-12-07T08:20:20;6.90;88.20
17452;DHT22;8843;48.838;9.324;2022-12-07T08:22:47;6.90;87.50
17452;DHT22;8843;48.838;9.324;2022-12-07T08:25:14;7.00;87.60
17452;DHT22;8843;48.838;9.324;2022-12-07T08:27:41;6.90;87.40
17452;DHT22;8843;48.838;9.324;2022-12-07T08:30:08;7.00;87.60
17452;DHT22;8843;48.838;9.324;2022-12-07T08:32:37;6.90;87.50
17452;DHT22;8843;48.838;9.324;2022-12-07T08:35:04;6.90;87.60
17452;DHT22;8843;48.838;9.324;2022-12-07T08:37:31;6.90;87.50
17452;DHT22;8843;48.838;9.324;2022-12-07T08:39:58;6.90;87.50
17452;DHT22;8843;48.838;9.324;2022-12-07T08:42:25;6.90;87.60
17452;DHT22;8843;48.838;9.324;2022-12-07T08:44:55;6.90;87.60
17452;DHT22;8843;48.838;9.324;2022-12-07T08:47:23;7.00;87.70
17452;DHT22;8843;48.838;9.324;2022-12-07T08:49:53;6.90;87.60
17452;DHT22;8843;48.838;9.324;2022-12-07T08:52:20;7.00;87.70
17452;DHT22;8843;48.838;9.324;2022-12-07T08:54:48;6.90;87.60
17452;DHT22;8843;48.838;9.324;2022-12-07T08:57:15;6.90;87.60
17452;DHT22;8843;48.838;9.324;2022-12-07T08:59:42;6.90;87.60
17452;DHT22;8843;48.838;9.324;2022-12-07T09:02:09;7.00;87.70
17452;DHT22;8843;48.838;9.324;2022-12-07T09:04:35;6.90;88.30
17452;DHT22;8843;48.838;9.324;2022-12-07T09:07:04;6.90;87.60
17452;DHT22;8843;48.838;9.324;2022-12-07T09:09:31;6.90;87.60
17452;DHT22;8843;48.838;9.324;2022-12-07T09:11:58;7.00;87.80
17452;DHT22;8843;48.838;9.324;2022-12-07T09:14:25;6.90;87.60
17452;DHT22;8843;48.838;9.324;2022-12-07T09:16:52;6.90;88.40
17452;DHT22;8843;48.838;9.324;2022-12-07T09:19:19;6.90;87.70
17452;DHT22;8843;48.838;9.324;2022-12-07T09:21:46;6.90;87.70
17452;DHT22;8843;48.838;9.324;2022-12-07T09:24:14;6.90;87.70
17452;DHT22;8843;48.838;9.324;2022-12-07T09:26:41;6.90;87.60
17452;DHT22;8843;48.838;9.324;2022-12-07T09:29:08;6.90;87.60
17452;DHT22;8843;48.838;9.324;2022-12-07T09:31:36;6.90;87.60
17452;DHT22;8843;48.838;9.324;2022-12-07T09:34:03;7.00;88.40
17452;DHT22;8843;48.838;9.324;2022-12-07T09:36:31;6.90;87.60
17452;DHT22;8843;48.838;9.324;2022-12-07T09:38:58;7.00;88.50
17452;DHT22;8843;48.838;9.324;2022-12-07T09:41:29;6.90;87.60
17452;DHT22;8843;48.838;9.324;2022-12-07T09:44:03;7.00;87.80
17452;DHT22;8843;48.838;9.324;2022-12-07T09:46:33;7.00;87.60
17452;DHT22;8843;48.838;9.324;2022-12-07T09:49:02;7.00;88.40
17452;DHT22;8843;48.838;9.324;2022-12-07T09:51:29;6.90;87.50
17452;DHT22;8843;48.838;9.324;2022-12-07T09:53:57;7.00;87.60
17452;DHT22;8843;48.838;9.324;2022-12-07T09:56:28;7.00;87.60
17452;DHT22;8843;48.838;9.324;2022-12-07T09:58:59;6.90;87.50
17452;DHT22;8843;48.838;9.324;2022-12-07T10:01:28;6.90;87.50
17452;DHT22;8843;48.838;9.324;2022-12-07T10:04:01;6.90;87.60
17452;DHT22;8843;48.838;9.324;2022-12-07T10:06:28;6.90;87.50
17452;DHT22;8843;48.838;9.324;2022-12-07T10:08:55;6.90;87.40
17452;DHT22;8843;48.838;9.324;2022-12-07T10:11:22;6.90;87.50
17452;DHT22;8843;48.838;9.324;2022-12-07T10:13:52;6.90;87.60
17452;DHT22;8843;48.838;9.324;2022-12-07T10:16:34;6.90;87.50
17452;DHT22;8843;48.838;9.324;2022-12-07T10:19:19;6.90;87.50
17452;DHT22;8843;48.838;9.324;2022-12-07T10:22:01;6.90;87.50
17452;DHT22;8843;48.838;9.324;2022-12-07T10:24:28;6.90;87.50
17452;DHT22;8843;48.838;9.324;2022-12-07T10:26:56;6.90;87.50
17452;DHT22;8843;48.838;9.324;2022-12-07T10:29:29;6.90;87.60
17452;DHT22;8843;48.838;9.324;2022-12-07T10:31:58;6.90;87.60
17452;DHT22;8843;48.838;9.324;2022-12-07T10:34:27;6.90;87.50
17452;DHT22;8843;48.838;9.324;2022-12-07T10:37:13;6.90;87.50
17452;DHT22;8843;48.838;9.324;2022-12-07T10:39:42;7.00;87.60
17452;DHT22;8843;48.838;9.324;2022-12-07T10:42:16;6.90;87.30
17452;DHT22;8843;48.838;9.324;2022-12-07T10:44:46;7.00;87.50
17452;DHT22;8843;48.838;9.324;2022-12-07T10:47:29;7.00;87.60
17452;DHT22;8843;48.838;9.324;2022-12-07T10:50:26;7.00;87.50
17452;DHT22;8843;48.838;9.324;2022-12-07T10:53:11;6.90;87.30
17452;DHT22;8843;48.838;9.324;2022-12-07T10:55:56;7.00;87.40
17452;DHT22;8843;48.838;9.324;2022-12-07T10:58:36;7.00;87.40
17452;DHT22;8843;48.838;9.324;2022-12-07T11:01:13;7.10;89.10
17452;DHT22;8843;48.838;9.324;2022-12-07T11:04:07;7.00;87.00
17452;DHT22;8843;48.838;9.324;2022-12-07T11:06:45;7.00;87.20
17452;DHT22;8843;48.838;9.324;2022-12-07T11:09:36;7.00;87.40
17452;DHT22;8843;48.838;9.324;2022-12-07T11:12:10;7.00;87.40
17452;DHT22;8843;48.838;9.324;2022-12-07T11:14:46;7.00;88.10
17452;DHT22;8843;48.838;9.324;2022-12-07T11:17:22;7.00;88.20
17452;DHT22;8843;48.838;9.324;2022-12-07T11:20:00;7.00;87.40
17452;DHT22;8843;48.838;9.324;2022-12-07T11:22:36;7.00;87.40
17452;DHT22;8843;48.838;9.324;2022-12-07T11:25:17;7.00;87.30
17452;DHT22;8843;48.838;9.324;2022-12-07T11:27:47;7.00;87.40
17452;DHT22;8843;48.838;9.324;2022-12-07T11:30:18;7.00;87.40
17452;DHT22;8843;48.838;9.324;2022-12-07T11:33:08;7.00;87.40
17452;DHT22;8843;48.838;9.324;2022-12-07T11:35:44;6.90;87.40
17452;DHT22;8843;48.838;9.324;2022-12-07T11:38:15;6.90;87.50
17452;DHT22;8843;48.838;9.324;2022-12-07T11:40:46;6.90;86.80
17452;DHT22;8843;48.838;9.324;2022-12-07T11:43:20;6.90;87.50
17452;DHT22;8843;48.838;9.324;2022-12-07T11:45:54;7.00;87.50
17452;DHT22;8843;48.838;9.324;2022-12-07T11:48:30;7.40;89.30
17452;DHT22;8843;48.838;9.324;2022-12-07T11:51:00;7.30;87.30
17452;DHT22;8843;48.838;9.324;2022-12-07T11:53:33;7.20;87.60
17452;DHT22;8843;48.838;9.324;2022-12-07T11:56:06;7.10;88.40
17452;DHT22;8843;48.838;9.324;2022-12-07T11:58:46;7.10;87.70
17452;DHT22;8843;48.838;9.324;2022-12-07T12:01:26;7.00;87.70
17452;DHT22;8843;48.838;9.324;2022-12-07T12:04:02;7.10;87.70
17452;DHT22;8843;48.838;9.324;2022-12-07T12:06:33;7.00;87.50
17452;DHT22;8843;48.838;9.324;2022-12-07T12:09:04;7.00;87.80
17452;DHT22;8843;48.838;9.324;2022-12-07T12:11:44;7.00;87.60
17452;DHT22;8843;48.838;9.324;2022-12-07T12:14:27;7.00;87.70
17452;DHT22;8843;48.838;9.324;2022-12-07T12:17:12;7.00;88.50
17452;DHT22;8843;48.838;9.324;2022-12-07T12:19:43;7.00;87.70
17452;DHT22;8843;48.838;9.324;2022-12-07T12:22:15;7.00;87.60
17452;DHT22;8843;48.838;9.324;2022-12-07T12:24:43;7.00;88.00
17452;DHT22;8843;48.838;9.324;2022-12-07T12:27:26;7.00;87.50
17452;DHT22;8843;48.838;9.324;2022-12-07T12:29:56;7.00;87.30
17452;DHT22;8843;48.838;9.324;2022-12-07T12:32:34;7.00;87.80
17452;DHT22;8843;48.838;9.324;2022-12-07T12:35:26;7.00;87.60
17452;DHT22;8843;48.838;9.324;2022-12-07T12:37:54;7.00;87.90
17452;DHT22;8843;48.838;9.324;2022-12-07T12:40:42;7.00;87.90
17452;DHT22;8843;48.838;9.324;2022-12-07T12:43:44;7.00;87.80
17452;DHT22;8843;48.838;9.324;2022-12-07T12:46:38;7.00;87.80
17452;DHT22;8843;48.838;9.324;2022-12-07T12:49:35;7.00;87.70
17452;DHT22;8843;48.838;9.324;2022-12-07T12:55:20;7.00;87.60
17452;DHT22;8843;48.838;9.324;2022-12-07T12:58:21;7.00;87.70
17452;DHT22;8843;48.838;9.324;2022-12-07T13:00:46;7.00;88.40
17452;DHT22;8843;48.838;9.324;2022-12-07T13:03:22;7.00;87.70
17452;DHT22;8843;48.838;9.324;2022-12-07T13:06:17;7.00;87.50
17452;DHT22;8843;48.838;9.324;2022-12-07T13:08:46;6.90;87.70
17452;DHT22;8843;48.838;9.324;2022-12-07T13:11:18;6.90;87.80
17452;DHT22;8843;48.838;9.324;2022-12-07T13:13:46;7.00;87.80
17452;DHT22;8843;48.838;9.324;2022-12-07T13:22:51;7.00;87.80
17452;DHT22;8843;48.838;9.324;2022-12-07T13:25:30;7.00;87.60
17452;DHT22;8843;48.838;9.324;2022-12-07T13:28:02;7.00;87.70
17452;DHT22;8843;48.838;9.324;2022-12-07T13:30:43;7.00;87.70
17452;DHT22;8843;48.838;9.324;2022-12-07T13:33:11;7.00;87.70
17452;DHT22;8843;48.838;9.324;2022-12-07T13:35:39;7.50;91.10
17452;DHT22;8843;48.838;9.324;2022-12-07T13:38:21;7.40;87.90
17452;DHT22;8843;48.838;9.324;2022-12-07T13:41:02;7.20;87.70
17452;DHT22;8843;48.838;9.324;2022-12-07T13:43:29;7.10;88.20
17452;DHT22;8843;48.838;9.324;2022-12-07T13:45:57;7.10;88.10
17452;DHT22;8843;48.838;9.324;2022-12-07T13:48:30;7.10;88.10
17452;DHT22;8843;48.838;9.324;2022-12-07T13:50:59;7.10;88.20
17452;DHT22;8843;48.838;9.324;2022-12-07T13:53:28;7.10;88.10
17452;DHT22;8843;48.838;9.324;2022-12-07T13:55:56;7.00;88.00
17452;DHT22;8843;48.838;9.324;2022-12-07T13:58:25;6.90;87.90
17452;DHT22;8843;48.838;9.324;2022-12-07T14:00:53;7.40;90.00
17452;DHT22;8843;48.838;9.324;2022-12-07T14:03:26;7.20;86.50
17452;DHT22;8843;48.838;9.324;2022-12-07T14:06:13;7.10;87.20
17452;DHT22;8843;48.838;9.324;2022-12-07T14:08:41;7.10;87.50
17452;DHT22;8843;48.838;9.324;2022-12-07T14:11:12;7.00;87.60
17452;DHT22;8843;48.838;9.324;2022-12-07T14:13:50;7.00;87.60
17452;DHT22;8843;48.838;9.324;2022-12-07T14:16:23;7.00;87.60
17452;DHT22;8843;48.838;9.324;2022-12-07T14:18:51;7.00;87.70
17452;DHT22;8843;48.838;9.324;2022-12-07T14:21:20;7.00;87.70
17452;DHT22;8843;48.838;9.324;2022-12-07T14:24:12;7.00;87.70
17452;DHT22;8843;48.838;9.324;2022-12-07T14:26:42;7.00;87.70
17452;DHT22;8843;48.838;9.324;2022-12-07T14:29:37;7.00;87.80
17452;DHT22;8843;48.838;9.324;2022-12-07T14:32:19;7.00;87.70
17452;DHT22;8843;48.838;9.324;2022-12-07T14:34:57;7.00;87.80
17452;DHT22;8843;48.838;9.324;2022-12-07T14:37:24;7.00;87.70
17452;DHT22;8843;48.838;9.324;2022-12-07T14:39:51;7.00;87.80
17452;DHT22;8843;48.838;9.324;2022-12-07T14:42:18;7.00;87.80
17452;DHT22;8843;48.838;9.324;2022-12-07T14:44:47;7.00;87.80
17452;DHT22;8843;48.838;9.324;2022-12-07T14:47:14;7.00;87.70
17452;DHT22;8843;48.838;9.324;2022-12-07T14:49:41;7.00;87.70
17452;DHT22;8843;48.838;9.324;2022-12-07T14:52:14;7.00;87.80
17452;DHT22;8843;48.838;9.324;2022-12-07T14:54:41;7.00;87.70
17452;DHT22;8843;48.838;9.324;2022-12-07T14:57:09;7.00;87.80
17452;DHT22;8843;48.838;9.324;2022-12-07T14:59:37;7.00;87.70
17452;DHT22;8843;48.838;9.324;2022-12-07T15:02:05;7.00;87.80
17452;DHT22;8843;48.838;9.324;2022-12-07T15:04:32;7.00;87.70
17452;DHT22;8843;48.838;9.324;2022-12-07T15:07:02;7.00;87.70
17452;DHT22;8843;48.838;9.324;2022-12-07T15:09:29;7.00;87.70
17452;DHT22;8843;48.838;9.324;2022-12-07T15:11:56;7.00;87.70
17452;DHT22;8843;48.838;9.324;2022-12-07T15:14:23;7.00;87.70
17452;DHT22;8843;48.838;9.324;2022-12-07T15:16:50;7.00;87.70
17452;DHT22;8843;48.838;9.324;2022-12-07T15:19:19;7.00;87.70
17452;DHT22;8843;48.838;9.324;2022-12-07T15:21:48;7.00;87.60
17452;DHT22;8843;48.838;9.324;2022-12-07T15:24:15;7.00;87.70
17452;DHT22;8843;48.838;9.324;2022-12-07T15:26:42;7.00;87.70
17452;DHT22;8843;48.838;9.324;2022-12-07T15:29:10;7.00;87.70
17452;DHT22;8843;48.838;9.324;2022-12-07T15:31:37;7.00;87.70
17452;DHT22;8843;48.838;9.324;2022-12-07T15:34:04;7.00;87.70
17452;DHT22;8843;48.838;9.324;2022-12-07T15:36:33;7.00;87.60
17452;DHT22;8843;48.838;9.324;2022-12-07T15:39:00;7.00;87.60
17452;DHT22;8843;48.838;9.324;2022-12-07T15:41:27;7.00;87.40
17452;DHT22;8843;48.838;9.324;2022-12-07T15:43:54;7.00;87.50
17452;DHT22;8843;48.838;9.324;2022-12-07T15:46:40;7.00;88.30
17452;DHT22;8843;48.838;9.324;2022-12-07T15:49:11;7.10;87.60
17452;DHT22;8843;48.838;9.324;2022-12-07T15:51:40;7.00;87.60
17452;DHT22;8843;48.838;9.324;2022-12-07T15:54:12;7.00;87.50
17452;DHT22;8843;48.838;9.324;2022-12-07T15:56:40;7.00;87.60
17452;DHT22;8843;48.838;9.324;2022-12-07T15:59:06;7.00;88.30
17452;DHT22;8843;48.838;9.324;2022-12-07T16:01:33;7.00;87.60
17452;DHT22;8843;48.838;9.324;2022-12-07T16:04:00;7.00;87.60
17452;DHT22;8843;48.838;9.324;2022-12-07T16:06:27;7.00;87.60
17452;DHT22;8843;48.838;9.324;2022-12-07T16:08:55;7.00;87.60
17452;DHT22;8843;48.838;9.324;2022-12-07T16:11:22;7.00;87.60
17452;DHT22;8843;48.838;9.324;2022-12-07T16:13:50;7.00;87.60
17452;DHT22;8843;48.838;9.324;2022-12-07T16:16:18;7.00;87.60
17452;DHT22;8843;48.838;9.324;2022-12-07T16:18:48;7.00;87.60
17452;DHT22;8843;48.838;9.324;2022-12-07T16:21:16;7.00;87.50
17452;DHT22;8843;48.838;9.324;2022-12-07T16:23:43;7.00;87.40
17452;DHT22;8843;48.838;9.324;2022-12-07T16:26:13;7.00;87.40
17452;DHT22;8843;48.838;9.324;2022-12-07T16:28:41;7.00;87.40
17452;DHT22;8843;48.838;9.324;2022-12-07T16:31:10;7.00;87.50
17452;DHT22;8843;48.838;9.324;2022-12-07T16:33:39;7.00;87.40